Flight Track Log - Related Links

Times and Time Zones

All times are in EDT time to prevent confusion due to time zone crossing. See the N15DA flight status page for this flight to view local times or setup timezone preferences in your user account.

Time Position Orientation Groundspeed Altitude Reporting Facility
EDT Latitude Longitude Course Direction KTS MPH feet Rate Location/Type
Sun 02:43:00 PM 45.6681 -89.1676 165° South  Level Estimated
Sun 02:43:56 PM 45.8397 -89.2283 165° South 116 133 4,400  Level Minneapolis Center
Sun 02:44:00 PM 45.6241 -89.1509 165° South  Level Estimated
Sun 02:44:59 PM 45.7997 -89.2036 157° South 124 143 5,400  Level Minneapolis Center
Sun 02:45:00 PM 45.5801 -89.1343 165° South  Level Estimated
Sun 02:46:00 PM 45.5360 -89.1176 165° South  Level Estimated
Sun 02:46:01 PM 45.7658 -89.1883 163° South 126 145 6,200  Level Minneapolis Center
Sun 02:47:00 PM 45.4920 -89.1010 165° South  Level Estimated
Sun 02:47:03 PM 45.7325 -89.1717 161° South 127 146 6,900  Level Minneapolis Center
Sun 02:48:00 PM 45.4479 -89.0844 165° South  Level Estimated
Sun 02:48:05 PM 45.6992 -89.1558 162° South 126 145 7,700  Level Minneapolis Center
Sun 02:49:00 PM 45.4039 -89.0679 165° South  Level Estimated
Sun 02:49:07 PM 45.6647 -89.1397 162° South 130 150 8,400  Level Minneapolis Center
Sun 02:50:10 PM 45.6222 -89.1197 162° South 133 153 9,000 288 Climbing Minneapolis Center
Sun 02:51:12 PM 45.5778 -89.0997 163° South 156 180 9,000  Level Minneapolis Center
Sun 02:52:14 PM 45.5306 -89.0781 162° South 170 196 9,000  Level Minneapolis Center
Sun 02:53:16 PM 45.4850 -89.0561 161° South 173 199 9,000  Level Minneapolis Center
Sun 02:54:18 PM 45.4400 -89.0339 161° South 172 198 9,000  Level Minneapolis Center
Sun 02:55:20 PM 45.3944 -89.0125 162° South 173 199 9,000  Level Minneapolis Center
Sun 02:56:22 PM 45.3403 -88.9869 162° South 171 197 9,000  Level Minneapolis Center
Sun 02:57:24 PM 45.2933 -88.9650 162° South 176 203 9,000  Level Minneapolis Center
Sun 02:58:26 PM 45.2469 -88.9450 163° South 176 203 9,000  Level Minneapolis Center
Sun 02:59:28 PM 45.1994 -88.9233 162° South 178 205 9,000  Level Minneapolis Center
Sun 03:00:42 PM 45.1531 -88.9000 160° South 177 204 9,000  Level Minneapolis Center
Sun 03:01:45 PM 45.0969 -88.8764 163° South 175 201 9,000 -48 Level Minneapolis Center
Sun 03:02:47 PM 45.0408 -88.8494 161° South 175 201 8,900 -48 Descending Minneapolis Center
Sun 03:03:49 PM 44.9936 -88.8261 161° South 178 205 8,900  Level Minneapolis Center
Sun 03:04:51 PM 44.9464 -88.8044 162° South 178 205 8,900  Level Minneapolis Center
Sun 03:05:53 PM 44.8989 -88.7825 162° South 180 207 8,900  Level Minneapolis Center
Sun 03:06:56 PM 44.8506 -88.7619 163° South 181 208 8,900  Level Minneapolis Center
Sun 03:07:58 PM 44.8022 -88.7158 146° Southeast 180 207 8,900 48 Level Minneapolis Center
Sun 03:09:00 PM 44.7611 -88.6761 146° Southeast 178 205 9,000 48 Climbing Minneapolis Center
Sun 03:10:02 PM 44.7194 -88.6347 145° Southeast 182 209 9,000  Level Minneapolis Center
Sun 03:11:04 PM 44.6781 -88.5958 146° Southeast 180 207 9,000  Level Minneapolis Center
Sun 03:12:06 PM 44.6367 -88.5558 145° Southeast 180 207 9,000  Level Minneapolis Center
Sun 03:13:08 PM 44.5950 -88.5144 145° Southeast 182 209 9,000  Level Minneapolis Center
Sun 03:14:10 PM 44.5453 -88.4714 148° Southeast 182 209 9,000  Level Minneapolis Center
Sun 03:15:12 PM 44.5044 -88.4294 144° Southeast 181 208 9,000  Level Minneapolis Center
Sun 03:16:14 PM 44.4617 -88.3900 147° Southeast 185 213 9,000  Level Minneapolis Center
Sun 03:17:16 PM 44.4211 -88.3508 145° Southeast 179 206 9,000  Level Minneapolis Center
Sun 03:18:19 PM 44.3792 -88.3108 146° Southeast 182 209 9,000  Level Minneapolis Center
Sun 03:19:21 PM 44.3414 -88.2833 152° Southeast 182 209 9,000  Level Minneapolis Center
Sun 03:20:23 PM 44.2808 -88.2436 155° Southeast 180 207 9,000  Level Minneapolis Center
Sun 03:21:25 PM 44.2350 -88.2153 156° South 179 206 9,000  Level Minneapolis Center
Sun 03:22:27 PM 44.1872 -88.1953 163° South 183 211 9,000  Level Minneapolis Center
Sun 03:23:29 PM 44.1378 -88.1889 175° South 179 206 9,000  Level Minneapolis Center
Sun 03:24:31 PM 44.0803 -88.1811 174° South 179 206 9,000  Level Minneapolis Center
Sun 03:25:33 PM 44.0303 -88.1767 176° South 179 206 9,000  Level Minneapolis Center
Sun 03:26:35 PM 43.9817 -88.1725 176° South 177 204 9,000 -48 Level Minneapolis Center
Sun 03:27:38 PM 43.9328 -88.1692 177° South 176 203 8,900 -88 Descending Minneapolis Center
Sun 03:28:52 PM 43.8675 -88.1639 177° South 174 200 8,800 -309 Descending Minneapolis Center
Sun 03:29:54 PM 43.8164 -88.1603 177° South 183 211 8,200 -581 Descending Minneapolis Center
Sun 03:30:56 PM 43.7633 -88.1553 176° South 189 217 7,600 -532 Descending Minneapolis Center
Sun 03:31:58 PM 43.7133 -88.1508 176° South 182 209 7,100 -288 Descending Minneapolis Center
Sun 03:33:01 PM 43.6644 -88.1467 176° South 176 203 7,000 -96 Descending Minneapolis Center
Sun 03:34:03 PM 43.6156 -88.1428 177° South 175 201 6,900  Descending Minneapolis Center
Sun 03:35:05 PM 43.5600 -88.1364 175° South 172 198 7,000  Climbing Minneapolis Center
Sun 03:36:07 PM 43.5125 -88.1314 176° South 171 197 6,900  Descending Minneapolis Center
Sun 03:37:09 PM 43.4656 -88.1275 177° South 169 194 7,000 48 Climbing Minneapolis Center
Sun 03:38:11 PM 43.4189 -88.1239 177° South 167 192 7,000  Level Minneapolis Center
Sun 03:39:13 PM 43.3719 -88.1261 182° South 167 192 7,000  Level Minneapolis Center
Sun 03:40:15 PM 43.3244 -88.1289 182° South 170 196 7,000  Level Minneapolis Center
Sun 03:41:18 PM 43.2692 -88.1333 183° South 169 194 7,000 45 Level Minneapolis Center
Sun 03:42:27 PM 43.2244 -88.1361 183° South 163 188 7,100 46 Climbing Chicago Center
Sun 03:43:29 PM 43.1711 -88.1389 182° South 163 188 7,100  Level Chicago Center
Sun 03:44:32 PM 43.1233 -88.1422 183° South 168 193 7,100  Level Chicago Center
Sun 03:45:34 PM 43.0781 -88.1439 182° South 164 189 7,100 -242 Level Chicago Center
Sun 03:46:36 PM 43.0286 -88.1447 181° South 171 197 6,600 -629 Descending Chicago Center
Sun 03:47:38 PM 42.9778 -88.1492 184° South 180 207 5,800 -581 Descending Chicago Center
Sun 03:48:40 PM 42.9183 -88.1542 184° South 182 209 5,400 -435 Descending Chicago Center
Sun 03:49:42 PM 42.8708 -88.1569 182° South 174 200 4,900 -532 Descending Chicago Center
Sun 03:50:44 PM 42.8208 -88.1619 184° South 177 204 4,300 -435 Descending Chicago Center
Sun 03:51:46 PM 42.7714 -88.1669 184° South 178 205 4,000 -145 Descending Chicago Center
Sun 03:52:48 PM 42.7247 -88.1731 185° South 171 197 4,000 48 Level Chicago Center
Sun 03:53:50 PM 42.6794 -88.1786 185° South 165 190 4,100  Climbing Chicago Center
Sun 03:54:52 PM 42.6267 -88.1861 186° South 163 188 4,000 -48 Descending Chicago Center
Sun 03:55:55 PM 42.5819 -88.1886 182° South 163 188 4,000  Level Chicago Center
Sun 03:56:57 PM 42.5372 -88.1972 188° South 162 186 4,000 -48 Level Chicago Center
Sun 03:57:59 PM 42.4922 -88.2033 186° South 162 186 3,900 -48 Descending Chicago Center
Sun 03:59:01 PM 42.4489 -88.2031 180° South 158 182 3,900  Level Chicago Center
Sun 04:00:03 PM 42.3997 -88.1983 176° South 152 175 3,900 -97 Level Chicago Center
Sun 04:01:05 PM 42.3664 -88.1761 154° Southeast 148 170 3,700 -435 Descending Chicago Center
Sun 04:02:07 PM 42.3697 -88.1089 86° East 174 200 3,000 -387 Descending Chicago Center
Sun 04:03:09 PM 42.3725 -88.0522 86° East 162 186 2,900 48 Descending Chicago Center
Sun 04:04:11 PM 42.3525 -88.0267 137° Southeast 134 154 3,100 48 Climbing Chicago Center
Sun 04:05:13 PM 42.3119 -88.0122 165° South 145 167 3,000 -145 Descending Chicago Center
Sun 04:06:15 PM 42.2742 -87.9883 155° Southeast 147 169 2,800 -242 Descending Chicago Center
Sun 04:07:17 PM 42.2278 -87.9647 159° South 149 171 2,500 -339 Descending Chicago Center
Sun 04:08:19 PM 42.1925 -87.9447 157° South 145 167 2,100 -336 Descending Chicago Center
Sun 04:09:22 PM 42.1553 -87.9239 157° South 140 161 1,800 -286 Descending Chicago Center

Login

Don't have an account? Register now (free) for customized features, flight alerts, and more!